Auburn, NH

10:55 PM EST on March 03, 2015 (GMT -0500)
Willow Court | Change Station
CLOSE
Current Station
Personal Weather Station
Location: Auburn, NH
Elevation: 423 ft
Nearby Weather Stations
Active Advisory: Winter Weather Advisory

Elev 423 ft 42.97 °N, 71.32 °W | Updated 1 minute ago

Snow
Snow
23.4 °F
Feels Like 23 °F
N
0.0
Wind Variable Wind from SSE
Gusts 0.0 mph

Today
High -- | Low -- °F
--% Chance of Precip.
Yesterday
High -- | Low -- °F
Precip. -- in
6:18 AM 5:36 PM
Waxing Gibbous, 98% visible
Pressure 29.84 in
Visibility 0.5 miles
Clouds
Windchill 23 °F
Dew Point 22 °F
Humidity 93%
Rainfall 0.00 in
Snow Depth Not available.
UV Not available.
Pollen .30 out of 12
Air Quality Not available.
Flu Activity Not available.
SPECI KMHT 040342Z 17006KT 1/2SM R35/4000V5500FT SN VV009 M04/M06 A2984 RMK AO2 TWR VIS 2 P0002 T10441056 $

More Conditions Fewer Conditions

Pressure 29.84 in
Visibility 0.5 miles
Clouds
Windchill 23 °F
Dew Point 22 °F
Humidity 93%
Rainfall 0.00 in
Snow Depth Not available.
UV Not available.
Pollen .30 out of 12
Air Quality Not available.
Flu Activity Not available.
SPECI KMHT 040342Z 17006KT 1/2SM R35/4000V5500FT SN VV009 M04/M06 A2984 RMK AO2 TWR VIS 2 P0002 T10441056 $

More Conditions Fewer Conditions

10-Day Weather Forecast

Almanac

Astronomy

Mar. 03, 2015 Rise Set
Actual Time
Civil Twilight
Nautical Twilight
Astronomical Twilight
Moon
Length of Visible Light
Length of Day
Tomorrow will be .
, % of the Moon is Illuminated

Today's Extremes

State Highs State Lows

Community

WunderPhotos

Upload Photos

1,802,379 photos uploaded!

WunderBlogs® & News

Nearby

Air Quality

  Air Quality AQ Index Pollutant
Not available.

Snow Depth

Station Depth Elevation

Earthquake Activity

City Distance Mag. Time & Date
Minimum magnitude displayed is 2.5.

Coastal Water Temperatures

Place Temperature

Nearby Weather Stations

Winter Weather Advisory
Statement as of 3:06 PM EST on March 03, 2015

... Winter Weather Advisory remains in effect until 7 am EST
Wednesday...

* hazard types... snow.

* Accumulations... snow accumulation of 2 to 4 inches.

* Timing... snow begins late this afternoon and continues into the
pre-dawn hours before ending. Precipitation could briefly mix
with or change to rain sleet or freezing rain as it ends.

* Impacts... Road will become snow covered and slippery.

* Winds... south 5 to 10 mph with gusts up to 20 mph.

* Temperatures... in the upper 20s.

Precautionary/preparedness actions...

A Winter Weather Advisory means that periods of snow... sleet... or
freezing rain will cause travel difficulties. Be prepared for
slippery roads and limited visibilities... and use caution while
driving.